Startline

Calgary Marathon

Calgary, AB - May 26, 2013

EventPlaceGun Time Race #NameDivision Place/GenderPlace/Division Chip Time
Marathon 19/988 2:55:24 439 HADDOW, Nick M2529 17/634 1/82 2:55:23
Marathon 24/988 2:55:59 325 EIKELBOOM, David M2529 22/634 2/82 2:55:59
Marathon 42/988 3:03:53 1123 VANDERVEEN, John M2529 37/634 3/82 3:03:48
Marathon 43/988 3:04:40 1050 SUDERMAN, Andrew M2529 38/634 4/82 3:04:37
Marathon 54/988 3:10:15 587 KONT, Mevlut M2529 47/634 5/82 3:10:11
Marathon 55/988 3:10:31 939 ROBISON, Joel M2529 48/634 6/82 3:10:22
Marathon 69/988 3:14:43 255 CUNNING, Matthew M2529 61/634 7/82 3:14:38
Marathon 70/988 3:14:49 1199 YURKOWSKI, Adam M2529 62/634 8/82 3:14:11
Marathon 74/988 3:15:23 527 INGRAM, Cory M2529 64/634 9/82 3:15:12
Marathon 90/988 3:19:29 481 HEIGHTON, Andrew M2529 78/634 10/82 3:19:27
Marathon 93/988 3:19:55 31 KEYKO, Nick M2529 81/634 11/82 3:19:52
Marathon 113/988 3:24:03 501 HOLT, Jordan M2529 98/634 12/82 3:23:04
Marathon 135/988 3:29:03 269 DARCY, Noel M2529 116/634 13/82 3:25:59
Marathon 144/988 3:29:42 1098 TOPPING, Michael M2529 125/634 14/82 3:29:14
Marathon 152/988 3:30:12 572 KIELBASINSKI, Matthew M2529 132/634 15/82 3:29:28
Marathon 158/988 3:30:54 578 KIRBY, Michael M2529 137/634 16/82 3:30:51
Marathon 166/988 3:31:44 118 BERNAKEVITCH, Brett M2529 141/634 17/82 3:31:37
Marathon 172/988 3:32:26 1088 THOMPSON, Max M2529 147/634 18/82 3:32:15
Marathon 174/988 3:32:51 37 ELLIOTT, Tristan M2529 149/634 19/82 3:32:12
Marathon 194/988 3:36:18 596 KROONTJE, Aaron M2529 163/634 20/82 3:36:03
Marathon 223/988 3:41:18 368 FLOWERS, Brendan M2529 189/634 21/82 3:40:58
Marathon 235/988 3:42:29 111 BENSON, Kelly M2529 198/634 22/82 3:40:43
Marathon 237/988 3:42:36 428 GRIFFITHS, John M2529 199/634 23/82 3:42:08
Marathon 245/988 3:43:51 589 KOPF, John M2529 204/634 24/82 3:43:43
Marathon 254/988 3:45:00 1177 WOLANSKY, Reade M2529 210/634 25/82 3:44:50
Marathon 258/988 3:45:29 585 KOCIUMBAS, Tomasz M2529 214/634 26/82 3:44:35
Marathon 278/988 3:48:59 383 FRANCIS, Justin M2529 228/634 27/82 3:44:35
Marathon 284/988 3:49:31 1059 SUTHERLAND, Kyle M2529 233/634 28/82 3:48:47
Marathon 300/988 3:51:01 745 MCKINNEY, Curtis M2529 243/634 29/82 3:50:30
Marathon 324/988 3:54:08 849 PARFIENIUK, Chris M2529 259/634 30/82 3:53:24
Marathon 325/988 3:54:11 275 DE BOON, Stephen M2529 260/634 31/82 3:53:25
Marathon 327/988 3:54:20 513 HUESTIS, Tyler M2529 262/634 32/82 3:52:59
Marathon 330/988 3:54:31 446 HAHN, Evan M2529 264/634 33/82 3:53:29
Marathon 342/988 3:55:32 65 ANDRECHEK, Scott M2529 270/634 34/82 3:55:06
Marathon 348/988 3:56:42 370 FOLAN, Dermot M2529 274/634 35/82 3:52:08
Marathon 355/988 3:57:04 424 GREENHORNE, Cody M2529 277/634 36/82 3:55:57
Marathon 367/988 3:58:27 179 BZDZIUCH, Daniel M2529 282/634 37/82 3:57:15
Marathon 400/988 4:01:03 89 BALASKI, Travis M2529 307/634 38/82 4:00:29
Marathon 401/988 4:01:42 544 JOHNSON, Michael M2529 308/634 39/82 4:01:16
Marathon 404/988 4:02:06 1065 SZETO, Jonathan M2529 310/634 40/82 4:00:44
Marathon 411/988 4:03:02 1305 DE FLEURIOT DE LA COLINIERE, Robbie M2529 314/634 41/82 4:02:00
Marathon 421/988 4:04:43 224 CHU, Philip M2529 321/634 42/82 4:02:56
Marathon 439/988 4:07:04 332 ENNIS, Ronnie M2529 332/634 43/82 4:05:21
Marathon 441/988 4:07:26 921 REIMER, Pete M2529 334/634 44/82 4:04:32
Marathon 453/988 4:09:55 62 ANAQUOD, Derek M2529 340/634 45/82 4:09:11
Marathon 456/988 4:10:11 288 DEWIT, Matthew M2529 342/634 46/82 4:07:40
Marathon 458/988 4:10:15 547 JOHNSTON, Adam M2529 343/634 47/82 4:09:23
Marathon 461/988 4:10:29 944 ROSS, Kyle M2529 345/634 48/82 4:07:30
Marathon 473/988 4:12:02 701 MANABAT, Sheldon M2529 355/634 49/82 4:08:17
Marathon 477/988 4:12:14 672 LUI, Matthew M2529 358/634 50/82 4:08:59
Marathon 492/988 4:14:03 723 MAXWELL, Logan M2529 370/634 51/82 4:13:44
Marathon 500/988 4:16:29 536 JANTZ, Chris M2529 377/634 52/82 4:13:20
Marathon 510/988 4:17:48 683 MACDONALD, Sean M2529 384/634 53/82 4:17:01
Marathon 519/988 4:18:31 119 BERNARDIN, Dave M2529 390/634 54/82 4:14:19
Marathon 542/988 4:20:39 694 MALAINEY, Jonathan M2529 406/634 55/82 4:16:06
Marathon 572/988 4:25:21 1079 TEMPLETON, James M2529 423/634 56/82 4:25:04
Marathon 593/988 4:27:10 1245 SCHEMENAUER, Nathan M2529 433/634 57/82 4:24:12
Marathon 597/988 4:27:47 1304 BRADEN, Douglas M2529 435/634 58/82 4:24:52
Marathon 609/988 4:29:13 545 JOHNSON, Ryan M2529 438/634 59/82 4:27:32
Marathon 616/988 4:30:09 512 HUESTIS, Paul M2529 443/634 60/82 4:27:18
Marathon 619/988 4:30:37 477 HEBERT, David M2529 445/634 61/82 4:28:49
Marathon 637/988 4:32:16 1132 VU, Tung M2529 455/634 62/82 4:29:46
Marathon 671/988 4:38:22 677 LYTTLE, Paul M2529 474/634 63/82 4:35:26
Marathon 691/988 4:41:19 729 MCCAFFREY, Dave M2529 484/634 64/82 4:37:36
Marathon 703/988 4:43:33 719 MATLOOB, Bashar M2529 487/634 65/82 4:42:32
Marathon 714/988 4:45:04 1015 SMITH, Bruce M2529 493/634 66/82 4:41:13
Marathon 719/988 4:45:40 700 MAN, Lai M2529 494/634 67/82 4:44:31
Marathon 767/988 4:54:24 410 GODZIUK, Steven M2529 512/634 68/82 4:53:09
Marathon 781/988 4:56:02 409 GODZIUK, Justin M2529 519/634 69/82 4:54:47
Marathon 835/988 5:04:24 1090 THOMSON, Graham M2529 549/634 70/82 5:01:33
Marathon 839/988 5:05:16 1180 WONG, Justin M2529 551/634 71/82 5:01:26
Marathon 842/988 5:05:29 72 ARNILL, Andrew M2529 553/634 72/82 5:00:50
Marathon 848/988 5:08:23 840 OVERALL, David M2529 556/634 73/82 5:03:51
Marathon 854/988 5:09:21 588 KOOCHIN, Chris M2529 559/634 74/82 5:07:56
Marathon 867/988 5:12:43 479 HEFFERNAN, Sean M2529 564/634 75/82 5:08:18
Marathon 872/988 5:14:28 705 MARRIOTT, David M2529 569/634 76/82 5:13:22
Marathon 891/988 5:21:34 594 KOWALSKY, Brendan M2529 581/634 77/82 5:13:06
Marathon 916/988 5:32:19 886 PONO, Peter M2529 594/634 78/82 5:31:15
Marathon 928/988 5:34:01 305 DOYLE, Aaron M2529 601/634 79/82 5:30:41
Marathon 985/988 6:22:23 157 BRONSON, Wyatt M2529 631/634 80/82 6:18:46
Marathon 986/988 6:33:53 743 MCKEIRNAN, Aaron M2529 632/634 81/82 6:33:39
Marathon 988/988 8:35:01 1296 LAPP, David M2529 634/634 82/82 8:34:59